createdAt,value
2022-08-17T00:00:43.078Z,20.96
2022-08-17T00:03:10.686Z,20.96
2022-08-17T00:05:51.851Z,20.97
2022-08-17T00:08:25.294Z,20.93
2022-08-17T00:10:54.754Z,20.91
2022-08-17T00:13:25.675Z,20.87
2022-08-17T00:15:58.713Z,20.80
2022-08-17T00:19:06.127Z,20.77
2022-08-17T00:21:25.180Z,20.71
2022-08-17T00:23:53.792Z,20.65
2022-08-17T00:26:43.180Z,20.59
2022-08-17T00:29:19.916Z,20.55
2022-08-17T00:31:48.868Z,20.55
2022-08-17T00:34:17.084Z,20.57
2022-08-17T00:36:45.053Z,20.59
2022-08-17T00:39:12.922Z,20.56
2022-08-17T00:41:42.264Z,20.52
2022-08-17T00:44:13.081Z,20.46
2022-08-17T00:46:43.555Z,20.44
2022-08-17T00:49:12.809Z,20.39
2022-08-17T00:51:56.806Z,20.38
2022-08-17T00:54:41.822Z,20.34
2022-08-17T00:57:17.006Z,20.31
2022-08-17T00:59:56.052Z,20.28
2022-08-17T01:02:42.236Z,20.28
2022-08-17T01:05:20.888Z,20.22
2022-08-17T01:07:52.879Z,20.18
2022-08-17T01:10:59.577Z,20.18
2022-08-17T01:13:17.486Z,20.11
2022-08-17T01:15:54.952Z,20.06
2022-08-17T01:18:23.330Z,19.97
2022-08-17T01:20:54.131Z,19.93
2022-08-17T01:23:24.133Z,19.90
2022-08-17T01:25:55.099Z,19.87
2022-08-17T01:28:52.568Z,19.82
2022-08-17T01:31:14.042Z,19.82
2022-08-17T01:33:42.503Z,19.82
2022-08-17T01:36:10.595Z,19.79
2022-08-17T01:38:39.590Z,19.82
2022-08-17T01:41:12.435Z,19.84
2022-08-17T01:43:47.698Z,19.84
2022-08-17T01:46:22.453Z,19.80
2022-08-17T01:48:51.253Z,19.77
2022-08-17T01:51:20.101Z,19.74
2022-08-17T01:53:51.546Z,19.74
2022-08-17T01:56:23.921Z,19.69
2022-08-17T01:58:52.532Z,19.69
2022-08-17T02:01:23.485Z,19.69
2022-08-17T02:03:56.341Z,19.70
2022-08-17T02:06:53.715Z,19.67
2022-08-17T02:09:25.965Z,19.65
2022-08-17T02:11:56.386Z,19.63
2022-08-17T02:14:25.810Z,19.59
2022-08-17T02:16:54.389Z,19.58
2022-08-17T02:19:22.755Z,19.54
2022-08-17T02:21:53.131Z,19.55
2022-08-17T02:24:58.741Z,19.52
2022-08-17T02:27:19.837Z,19.49
2022-08-17T02:29:47.835Z,19.48
2022-08-17T02:32:27.201Z,19.46
2022-08-17T02:35:00.019Z,19.44
2022-08-17T02:37:30.047Z,19.41
2022-08-17T02:39:58.764Z,19.39
2022-08-17T02:42:39.672Z,19.42
2022-08-17T02:45:11.542Z,19.39
2022-08-17T02:47:40.492Z,19.44
2022-08-17T02:50:11.481Z,19.42
2022-08-17T02:52:44.187Z,19.41
2022-08-17T02:55:25.002Z,19.41
2022-08-17T02:57:53.589Z,19.42
2022-08-17T03:00:25.439Z,19.45
2022-08-17T03:02:54.090Z,19.48
2022-08-17T03:05:24.394Z,19.54
2022-08-17T03:07:52.595Z,19.54
2022-08-17T03:10:21.622Z,19.54
2022-08-17T03:12:50.338Z,19.55
2022-08-17T03:15:21.381Z,19.59
2022-08-17T03:17:49.862Z,19.62
2022-08-17T03:20:18.657Z,19.62
2022-08-17T03:22:53.408Z,19.61
2022-08-17T03:25:26.590Z,19.54
2022-08-17T03:27:55.063Z,19.52
2022-08-17T03:30:24.373Z,19.55
2022-08-17T03:32:54.899Z,19.58
2022-08-17T03:35:25.835Z,19.62
2022-08-17T03:38:00.709Z,19.56
2022-08-17T03:40:55.591Z,19.58
2022-08-17T03:43:19.545Z,19.58
2022-08-17T03:46:10.742Z,19.59
2022-08-17T03:49:14.838Z,19.59
2022-08-17T03:52:01.402Z,19.55
2022-08-17T03:54:48.425Z,19.58
2022-08-17T03:57:16.729Z,19.55
2022-08-17T03:59:45.351Z,19.52
2022-08-17T04:02:30.139Z,19.51
2022-08-17T04:04:58.943Z,19.54
2022-08-17T04:07:29.764Z,19.56
2022-08-17T04:10:01.694Z,19.58
2022-08-17T04:12:41.968Z,19.56
2022-08-17T04:15:10.399Z,19.54
2022-08-17T04:17:40.340Z,19.55
2022-08-17T04:20:09.485Z,19.54
2022-08-17T04:22:38.374Z,19.55
2022-08-17T04:25:18.209Z,19.56
2022-08-17T04:27:46.245Z,19.58
2022-08-17T04:30:14.498Z,19.58
2022-08-17T04:33:08.627Z,19.52
2022-08-17T04:35:41.309Z,19.48
2022-08-17T04:38:14.132Z,19.49
2022-08-17T04:41:01.463Z,19.51
2022-08-17T04:43:31.584Z,19.48
2022-08-17T04:46:08.490Z,19.49
2022-08-17T04:48:42.711Z,19.48
2022-08-17T04:51:18.651Z,19.48
2022-08-17T04:53:53.827Z,19.52
2022-08-17T04:56:25.806Z,19.58
2022-08-17T04:58:57.673Z,19.62
2022-08-17T05:01:31.233Z,19.63
2022-08-17T05:04:20.765Z,19.65
2022-08-17T05:06:50.383Z,19.66
2022-08-17T05:09:18.823Z,19.66
2022-08-17T05:11:51.802Z,19.66
2022-08-17T05:14:19.661Z,19.67
2022-08-17T05:16:51.083Z,19.73
2022-08-17T05:19:19.260Z,19.77
2022-08-17T05:21:54.334Z,19.84
2022-08-17T05:24:43.083Z,19.94
2022-08-17T05:27:10.352Z,19.96
2022-08-17T05:29:44.608Z,19.98
2022-08-17T05:32:38.614Z,20.04
2022-08-17T05:35:02.106Z,20.13
2022-08-17T05:37:30.039Z,20.21
2022-08-17T05:39:58.010Z,20.25
2022-08-17T05:42:26.112Z,20.31
2022-08-17T05:44:56.710Z,20.35
2022-08-17T05:47:26.354Z,20.37
2022-08-17T05:49:54.545Z,20.21
2022-08-17T05:52:47.616Z,20.17
2022-08-17T05:55:33.116Z,19.97
2022-08-17T05:58:28.859Z,20.22
2022-08-17T06:01:11.342Z,20.32
2022-08-17T06:03:49.462Z,20.56
2022-08-17T06:06:32.451Z,20.52
2022-08-17T06:09:05.783Z,20.20
2022-08-17T06:11:53.480Z,20.55
2022-08-17T06:14:40.186Z,20.62
2022-08-17T06:17:16.548Z,20.90
2022-08-17T06:20:15.357Z,21.04
2022-08-17T06:22:49.768Z,21.30
2022-08-17T06:25:31.685Z,21.54
2022-08-17T06:28:26.578Z,21.85
2022-08-17T06:31:01.220Z,22.24
2022-08-17T06:33:35.341Z,22.48
2022-08-17T06:36:55.761Z,21.71
2022-08-17T06:39:40.197Z,21.31
2022-08-17T06:42:59.972Z,21.00
2022-08-17T06:45:14.204Z,20.75
2022-08-17T06:47:57.459Z,20.66
2022-08-17T06:50:36.628Z,20.73
2022-08-17T06:53:26.761Z,20.71
2022-08-17T06:56:07.585Z,20.79
2022-08-17T06:58:41.605Z,20.84
2022-08-17T07:01:18.022Z,20.93
2022-08-17T07:04:12.586Z,21.07
2022-08-17T07:07:31.979Z,21.30
2022-08-17T07:10:01.277Z,21.37
2022-08-17T07:12:38.439Z,21.46
2022-08-17T07:15:15.727Z,21.48
2022-08-17T07:17:47.577Z,21.44
2022-08-17T07:20:21.140Z,21.44
2022-08-17T07:22:50.499Z,21.42
2022-08-17T07:25:30.520Z,21.42
2022-08-17T07:28:02.386Z,21.58
2022-08-17T07:30:45.747Z,22.08
2022-08-17T07:33:20.960Z,22.69
2022-08-17T07:35:50.078Z,23.50
2022-08-17T07:38:26.781Z,22.66
2022-08-17T07:40:58.009Z,22.66
2022-08-17T07:43:38.749Z,22.35
2022-08-17T07:46:35.033Z,21.90
2022-08-17T07:49:08.861Z,21.89
2022-08-17T07:51:52.883Z,21.97
2022-08-17T07:54:37.834Z,22.20
2022-08-17T07:57:14.363Z,22.65
2022-08-17T08:00:03.057Z,23.21
2022-08-17T08:02:47.330Z,23.88
2022-08-17T08:05:30.857Z,24.26
2022-08-17T08:08:25.987Z,23.86
2022-08-17T08:11:10.782Z,23.30
2022-08-17T08:13:43.614Z,23.03
2022-08-17T08:16:17.205Z,22.80
2022-08-17T08:18:55.770Z,22.56
2022-08-17T08:21:43.378Z,22.62
2022-08-17T08:24:23.121Z,22.56
2022-08-17T08:27:32.767Z,22.65
2022-08-17T08:30:09.655Z,22.54
2022-08-17T08:32:54.194Z,22.72
2022-08-17T08:35:46.579Z,22.65
2022-08-17T08:38:30.828Z,22.75
2022-08-17T08:41:45.802Z,22.69
2022-08-17T08:45:00.615Z,22.59
2022-08-17T08:47:35.469Z,22.69
2022-08-17T08:50:37.852Z,22.86
2022-08-17T08:53:37.731Z,22.89
2022-08-17T08:56:16.759Z,22.97
2022-08-17T08:58:59.416Z,23.30
2022-08-17T09:01:58.517Z,23.44
2022-08-17T09:05:13.310Z,23.54
2022-08-17T09:08:13.579Z,23.43
2022-08-17T09:10:59.542Z,23.35
2022-08-17T09:13:42.509Z,23.75
2022-08-17T09:16:20.247Z,24.05
2022-08-17T09:19:01.263Z,24.16
2022-08-17T09:21:44.610Z,24.09
2022-08-17T09:24:48.806Z,24.33
2022-08-17T09:27:26.624Z,24.09
2022-08-17T09:30:04.827Z,24.02
2022-08-17T09:32:44.599Z,23.98
2022-08-17T09:35:19.396Z,24.12
2022-08-17T09:38:28.043Z,24.55
2022-08-17T09:41:21.643Z,25.19
2022-08-17T09:44:23.641Z,25.68
2022-08-17T09:46:54.164Z,25.52
2022-08-17T09:49:29.197Z,25.86
2022-08-17T09:52:30.321Z,25.20
2022-08-17T09:55:01.456Z,25.20
2022-08-17T09:57:46.542Z,24.72
2022-08-17T10:00:27.177Z,24.69
2022-08-17T10:03:19.849Z,24.52
2022-08-17T10:06:06.842Z,24.82
2022-08-17T10:08:43.535Z,24.54
2022-08-17T10:11:44.883Z,24.52
2022-08-17T10:14:37.961Z,24.37
2022-08-17T10:17:37.299Z,24.55
2022-08-17T10:20:20.565Z,24.44
2022-08-17T10:23:18.810Z,24.12
2022-08-17T10:26:05.363Z,23.95
2022-08-17T10:28:40.785Z,23.93
2022-08-17T10:34:24.529Z,23.86
2022-08-17T10:37:20.127Z,24.12
2022-08-17T10:40:11.952Z,24.18
2022-08-17T10:42:58.868Z,23.89
2022-08-17T10:45:37.881Z,23.95
2022-08-17T10:48:10.059Z,24.00
2022-08-17T10:50:55.909Z,24.13
2022-08-17T10:53:32.805Z,24.07
2022-08-17T10:56:12.924Z,24.21
2022-08-17T10:59:02.122Z,24.05
2022-08-17T11:01:57.890Z,23.96
2022-08-17T11:04:34.808Z,24.06
2022-08-17T11:07:32.283Z,24.13
2022-08-17T11:10:21.383Z,24.47
2022-08-17T11:13:21.778Z,24.47
2022-08-17T11:16:32.605Z,24.17
2022-08-17T11:19:09.967Z,24.38
2022-08-17T11:21:51.979Z,24.38
2022-08-17T11:24:40.353Z,24.44
2022-08-17T11:27:33.980Z,24.48
2022-08-17T11:30:35.938Z,24.64
2022-08-17T11:33:38.306Z,24.82
2022-08-17T11:36:26.558Z,24.89
2022-08-17T11:39:13.076Z,25.03
2022-08-17T11:41:48.839Z,24.78
2022-08-17T11:44:53.548Z,24.69
2022-08-17T11:48:16.120Z,24.57
2022-08-17T11:51:46.902Z,24.64
2022-08-17T11:54:34.327Z,24.68
2022-08-17T11:57:25.717Z,24.50
2022-08-17T12:00:05.797Z,24.45
2022-08-17T12:02:47.343Z,24.44
2022-08-17T12:05:21.040Z,24.34
2022-08-17T12:07:55.204Z,24.30
2022-08-17T12:10:31.712Z,24.12
2022-08-17T12:13:04.697Z,24.02
2022-08-17T12:15:37.804Z,23.96
2022-08-17T12:18:05.897Z,24.03
2022-08-17T12:20:40.680Z,24.00
2022-08-17T12:23:11.352Z,24.00
2022-08-17T12:25:51.307Z,23.88
2022-08-17T12:28:30.379Z,23.75
2022-08-17T12:31:21.379Z,23.65
2022-08-17T12:33:51.783Z,23.55
2022-08-17T12:36:24.835Z,23.50
2022-08-17T12:39:14.058Z,23.48
2022-08-17T12:41:46.986Z,23.55
2022-08-17T12:44:16.644Z,23.68
2022-08-17T12:47:03.250Z,23.83
2022-08-17T12:49:37.853Z,24.00
2022-08-17T12:52:29.644Z,24.20
2022-08-17T12:55:08.979Z,24.07
2022-08-17T12:57:44.597Z,24.10
2022-08-17T13:00:20.505Z,24.09
2022-08-17T13:03:02.386Z,23.89
2022-08-17T13:05:40.968Z,23.73
2022-08-17T13:08:30.295Z,23.51
2022-08-17T13:11:06.971Z,23.35
2022-08-17T13:13:44.758Z,23.13
2022-08-17T13:16:17.155Z,23.03
2022-08-17T13:19:12.024Z,22.96
2022-08-17T13:21:50.564Z,22.85
2022-08-17T13:24:38.399Z,22.66
2022-08-17T13:27:12.154Z,22.52
2022-08-17T13:29:52.992Z,22.49
2022-08-17T13:32:33.790Z,22.40
2022-08-17T13:35:28.397Z,22.37
2022-08-17T13:41:35.189Z,22.34
2022-08-17T13:44:43.334Z,22.30
2022-08-17T13:47:22.257Z,22.25
2022-08-17T13:49:50.943Z,22.25
2022-08-17T13:52:58.813Z,22.31
2022-08-17T13:55:30.476Z,22.24
2022-08-17T13:58:06.515Z,22.25
2022-08-17T14:00:49.679Z,22.21
2022-08-17T14:03:25.072Z,22.27
2022-08-17T14:06:05.781Z,22.31
2022-08-17T14:08:34.167Z,22.30
2022-08-17T14:11:28.540Z,22.28
2022-08-17T14:14:25.896Z,22.31
2022-08-17T14:17:23.483Z,22.28
2022-08-17T14:20:23.104Z,22.18
2022-08-17T14:23:41.237Z,22.04
2022-08-17T14:26:23.299Z,22.08
2022-08-17T14:28:56.445Z,22.03
2022-08-17T14:31:28.007Z,22.04
2022-08-17T14:33:56.183Z,21.99
2022-08-17T14:36:24.169Z,21.90
2022-08-17T14:38:52.644Z,21.83
2022-08-17T14:41:23.378Z,21.85
2022-08-17T14:43:53.404Z,21.92
2022-08-17T14:46:21.267Z,21.82
2022-08-17T14:48:57.186Z,21.88
2022-08-17T14:51:28.495Z,21.89
2022-08-17T14:53:57.285Z,21.96
2022-08-17T14:56:26.070Z,21.99
2022-08-17T14:58:54.212Z,21.89
2022-08-17T15:01:24.406Z,21.75
2022-08-17T15:03:53.941Z,21.66
2022-08-17T15:06:22.698Z,21.62
2022-08-17T15:08:51.137Z,21.65
2022-08-17T15:11:19.012Z,21.65
2022-08-17T15:13:53.002Z,21.51
2022-08-17T15:16:21.415Z,21.54
2022-08-17T15:18:50.175Z,21.59
2022-08-17T15:21:22.145Z,21.71
2022-08-17T15:23:51.035Z,21.79
2022-08-17T15:26:25.693Z,21.90
2022-08-17T15:28:56.055Z,21.96
2022-08-17T15:31:32.337Z,22.16
2022-08-17T15:34:05.444Z,22.52
2022-08-17T15:36:36.512Z,22.77
2022-08-17T15:39:04.725Z,22.73
2022-08-17T15:41:32.972Z,22.76
2022-08-17T15:44:00.886Z,22.59
2022-08-17T15:46:29.044Z,22.38
2022-08-17T15:49:00.240Z,22.37
2022-08-17T15:51:30.994Z,22.22
2022-08-17T15:54:19.201Z,22.18
2022-08-17T15:56:50.936Z,22.06
2022-08-17T15:59:19.454Z,22.00
2022-08-17T16:03:15.877Z,21.88
2022-08-17T16:04:44.026Z,21.76
2022-08-17T16:07:14.585Z,21.62
2022-08-17T16:09:44.058Z,21.55
2022-08-17T16:12:16.589Z,21.51
2022-08-17T16:14:45.981Z,21.52
2022-08-17T16:17:38.918Z,21.46
2022-08-17T16:20:04.340Z,21.52
2022-08-17T16:22:35.525Z,21.46
2022-08-17T16:25:11.406Z,21.49
2022-08-17T16:27:39.573Z,21.51
2022-08-17T16:30:13.676Z,21.55
2022-08-17T16:32:45.480Z,21.54
2022-08-17T16:35:17.349Z,21.49
2022-08-17T16:37:45.867Z,21.45
2022-08-17T16:40:16.714Z,21.39
2022-08-17T16:42:49.420Z,21.32
2022-08-17T16:45:24.958Z,21.27
2022-08-17T16:48:01.950Z,21.23
2022-08-17T16:50:31.814Z,21.23
2022-08-17T16:53:18.589Z,21.20
2022-08-17T16:55:49.018Z,21.23
2022-08-17T16:58:16.951Z,21.23
2022-08-17T17:00:48.587Z,21.27
2022-08-17T17:03:20.556Z,21.32
2022-08-17T17:05:57.605Z,21.38
2022-08-17T17:09:03.897Z,21.37
2022-08-17T17:11:51.145Z,21.37
2022-08-17T17:14:30.487Z,21.34
2022-08-17T17:17:17.388Z,21.39
2022-08-17T17:19:47.296Z,21.41
2022-08-17T17:22:25.338Z,21.41
2022-08-17T17:25:01.208Z,21.44
2022-08-17T17:27:42.507Z,21.52
2022-08-17T17:30:33.357Z,21.42
2022-08-17T17:33:14.594Z,21.46
2022-08-17T17:35:50.817Z,21.51
2022-08-17T17:38:29.120Z,21.46
2022-08-17T17:41:02.484Z,21.39
2022-08-17T17:43:39.622Z,21.42
2022-08-17T17:46:28.688Z,21.34
2022-08-17T17:49:00.950Z,21.28
2022-08-17T17:52:09.201Z,21.28
2022-08-17T17:54:53.967Z,21.18
2022-08-17T17:57:47.026Z,21.15
2022-08-17T18:00:23.452Z,21.08
2022-08-17T18:03:13.243Z,21.08
2022-08-17T18:05:57.463Z,20.99
2022-08-17T18:08:36.694Z,20.97
2022-08-17T18:11:55.067Z,20.93
2022-08-17T18:14:45.596Z,20.89
2022-08-17T18:17:16.493Z,20.82
2022-08-17T18:19:45.167Z,20.71
2022-08-17T18:22:21.434Z,20.68
2022-08-17T18:24:56.414Z,20.65
2022-08-17T18:27:51.285Z,20.57
2022-08-17T18:30:19.945Z,20.56
2022-08-17T18:32:48.355Z,20.53
2022-08-17T18:35:19.420Z,20.51
2022-08-17T18:38:17.986Z,20.49
2022-08-17T18:41:04.490Z,20.44
2022-08-17T18:43:53.221Z,20.37
2022-08-17T18:46:28.417Z,20.31
2022-08-17T18:49:03.494Z,20.31
2022-08-17T18:51:40.677Z,20.32
2022-08-17T18:54:23.040Z,20.32
2022-08-17T18:56:56.209Z,20.29
2022-08-17T18:59:46.993Z,20.25
2022-08-17T19:02:38.647Z,20.24
2022-08-17T19:05:08.556Z,20.21
2022-08-17T19:07:41.517Z,20.21
2022-08-17T19:10:28.385Z,20.21
2022-08-17T19:13:13.994Z,20.22
2022-08-17T19:16:20.332Z,20.25
2022-08-17T19:19:17.218Z,20.25
2022-08-17T19:21:59.034Z,20.24
2022-08-17T19:24:31.415Z,20.25
2022-08-17T19:27:41.797Z,20.21
2022-08-17T19:30:15.682Z,20.21
2022-08-17T19:32:43.722Z,20.22
2022-08-17T19:35:17.328Z,20.21
2022-08-17T19:38:20.202Z,20.16
2022-08-17T19:41:00.542Z,20.14
2022-08-17T19:44:26.914Z,20.10
2022-08-17T19:47:55.158Z,20.11
2022-08-17T19:50:39.087Z,20.13
2022-08-17T19:53:13.492Z,20.55
2022-08-17T19:56:00.010Z,21.04
2022-08-17T19:58:45.950Z,21.73
2022-08-17T20:01:27.942Z,21.41
2022-08-17T20:04:19.278Z,21.12
2022-08-17T20:06:53.134Z,20.96
2022-08-17T20:09:39.069Z,21.10
2022-08-17T20:12:23.652Z,21.08
2022-08-17T20:14:57.316Z,21.04
2022-08-17T20:17:35.058Z,20.83
2022-08-17T20:20:19.631Z,20.93
2022-08-17T20:23:07.217Z,20.76
2022-08-17T20:25:59.369Z,20.80
2022-08-17T20:28:30.925Z,20.62
2022-08-17T20:30:59.774Z,20.56
2022-08-17T20:33:39.865Z,20.63
2022-08-17T20:36:21.906Z,20.56
2022-08-17T20:38:55.999Z,20.44
2022-08-17T20:41:26.917Z,20.35
2022-08-17T20:43:58.654Z,20.38
2022-08-17T20:46:36.789Z,20.24
2022-08-17T20:49:24.139Z,20.13
2022-08-17T20:52:00.633Z,20.07
2022-08-17T20:54:44.582Z,20.04
2022-08-17T20:57:32.132Z,19.94
2022-08-17T21:00:17.098Z,20.11
2022-08-17T21:02:52.616Z,20.08
2022-08-17T21:06:00.293Z,20.00
2022-08-17T21:08:54.739Z,19.80
2022-08-17T21:12:03.205Z,19.76
2022-08-17T21:14:29.715Z,19.62
2022-08-17T21:17:23.728Z,19.62
2022-08-17T21:20:12.602Z,19.55
2022-08-17T21:22:54.915Z,19.54
2022-08-17T21:25:49.246Z,19.41
2022-08-17T21:29:01.453Z,19.31
2022-08-17T21:31:49.059Z,19.24
2022-08-17T21:34:29.282Z,19.19
2022-08-17T21:37:21.682Z,19.19
2022-08-17T21:40:11.613Z,19.19
2022-08-17T21:42:50.728Z,19.24
2022-08-17T21:45:24.294Z,19.22
2022-08-17T21:48:18.809Z,19.21
2022-08-17T21:50:57.938Z,19.21
2022-08-17T21:53:38.795Z,19.19
2022-08-17T21:56:14.672Z,19.19
2022-08-17T21:58:54.754Z,19.25
2022-08-17T22:01:35.376Z,19.25
2022-08-17T22:04:18.506Z,19.19
2022-08-17T22:06:52.282Z,19.12
2022-08-17T22:09:46.022Z,19.12
2022-08-17T22:12:22.694Z,19.14
2022-08-17T22:14:56.199Z,19.10
2022-08-17T22:17:38.175Z,19.10
2022-08-17T22:20:14.857Z,19.08
2022-08-17T22:23:10.339Z,19.04
2022-08-17T22:26:09.757Z,19.01
2022-08-17T22:28:45.750Z,19.01
2022-08-17T22:31:29.282Z,19.00
2022-08-17T22:34:00.384Z,18.99
2022-08-17T22:36:38.956Z,18.96
2022-08-17T22:39:09.530Z,18.96
2022-08-17T22:41:59.285Z,18.91
2022-08-17T22:44:35.573Z,18.89
2022-08-17T22:47:30.711Z,18.89
2022-08-17T22:50:12.756Z,18.86
2022-08-17T22:53:03.085Z,18.87
2022-08-17T22:55:52.064Z,18.91
2022-08-17T22:58:42.118Z,18.89
2022-08-17T23:01:29.136Z,18.89
2022-08-17T23:04:10.926Z,18.90
2022-08-17T23:06:42.431Z,18.84
2022-08-17T23:09:10.487Z,18.87
2022-08-17T23:11:52.269Z,18.87
2022-08-17T23:14:21.441Z,18.87
2022-08-17T23:16:50.907Z,18.87
2022-08-17T23:19:21.350Z,18.82
2022-08-17T23:21:52.361Z,18.82
2022-08-17T23:24:23.076Z,18.76
2022-08-17T23:26:51.164Z,18.74
2022-08-17T23:29:21.555Z,18.69
2022-08-17T23:31:50.977Z,18.55
2022-08-17T23:34:19.419Z,18.52
2022-08-17T23:36:53.186Z,18.45
2022-08-17T23:39:24.416Z,18.39
2022-08-17T23:41:59.050Z,18.37
2022-08-17T23:44:28.720Z,18.37
2022-08-17T23:46:57.196Z,18.32
2022-08-17T23:49:25.495Z,18.34
2022-08-17T23:51:56.591Z,18.35
2022-08-17T23:54:41.543Z,18.34
2022-08-17T23:57:12.048Z,18.31
2022-08-17T23:59:40.656Z,18.31
